Time;durP1;ratioP1;P1;durP2;ratioP2;P2;SDS_P1;SDS_P2;PMS_P1;PMS_P2;Temp;Humidity;BMP_temperature;BMP_pressure;BME280_temperature;BME280_humidity;BME280_pressure;Samples;Min_cycle;Max_cycle;Signal;HPM_P1;HPM_P2
2022/06/06 00:00:00;;;;;;;;;;;16.80;98.70;;;;;;5007848;28;20023;-76
2022/06/06 00:02:28;;;;;;;;;;;16.80;98.80;;;;;;5014325;28;20032;-76
2022/06/06 00:04:56;;;;;;;;;;;16.80;98.70;;;;;;5002499;28;20391;-76
2022/06/06 00:07:23;;;;;;;;;;;16.70;98.70;;;;;;5014491;28;19933;-76
2022/06/06 00:09:50;;;;;;;;;;;16.70;98.80;;;;;;5008009;28;20012;-76
2022/06/06 00:12:17;;;;;;;;;;;16.70;98.70;;;;;;4995536;28;19936;-76
2022/06/06 00:14:44;;;;;;;;;;;16.70;98.80;;;;;;5011086;28;19933;-76
2022/06/06 00:17:10;;;;;;;;;;;16.70;99.00;;;;;;4994799;28;19932;-76
2022/06/06 00:19:37;;;;;;;;;;;16.70;99.10;;;;;;5003860;28;19927;-76
2022/06/06 00:22:05;;;;;;;;;;;16.70;99.00;;;;;;5032133;28;19934;-76
2022/06/06 00:24:32;;;;;;;;;;;16.70;99.00;;;;;;5013642;28;19925;-76
2022/06/06 00:26:59;;;;;;;;;;;16.60;99.00;;;;;;5014473;28;19953;-76
2022/06/06 00:29:27;;;;;;;;;;;16.60;99.10;;;;;;5014943;28;20443;-76
2022/06/06 00:34:51;;;;;;;;;;;16.60;99.30;;;;;;4999078;28;19926;-76
2022/06/06 00:37:21;;;;;;;;;;;16.60;99.50;;;;;;4998398;28;19925;-76
2022/06/06 00:39:48;;;;;;;;;;;16.60;99.40;;;;;;5005657;28;19988;-76
2022/06/06 00:42:18;;;;;;;;;;;16.50;99.40;;;;;;4997024;28;19929;-76
2022/06/06 00:44:45;;;;;;;;;;;16.50;99.40;;;;;;4999656;28;20462;-76
2022/06/06 00:47:17;;;;;;;;;;;16.40;99.60;;;;;;5007965;28;19960;-76
2022/06/06 00:49:45;;;;;;;;;;;16.40;99.50;;;;;;5034573;28;19925;-76
2022/06/06 00:52:14;;;;;;;;;;;16.40;99.50;;;;;;5012523;28;20016;-76
2022/06/06 00:54:43;;;;;;;;;;;16.40;99.50;;;;;;5000625;28;19932;-76
2022/06/06 00:57:13;;;;;;;;;;;16.40;99.60;;;;;;5017147;28;19926;-76
2022/06/06 00:59:41;;;;;;;;;;;16.30;99.50;;;;;;5033892;28;20031;-76
2022/06/06 01:02:10;;;;;;;;;;;16.30;99.70;;;;;;5030036;28;20225;-76
2022/06/06 01:04:38;;;;;;;;;;;16.30;99.70;;;;;;5034496;28;20272;-76
2022/06/06 01:07:05;;;;;;;;;;;16.20;99.60;;;;;;5003007;28;19932;-76
2022/06/06 01:09:32;;;;;;;;;;;16.20;99.70;;;;;;5007136;28;20008;-76
2022/06/06 01:12:03;;;;;;;;;;;16.20;99.80;;;;;;5029379;28;19951;-76
2022/06/06 01:14:32;;;;;;;;;;;16.20;99.80;;;;;;5009428;28;20265;-76
2022/06/06 01:17:01;;;;;;;;;;;16.20;99.80;;;;;;5009517;28;19932;-76
2022/06/06 01:19:55;;;;;;;;;;;16.10;99.70;;;;;;5004270;28;20028;-76
2022/06/06 01:22:34;;;;;;;;;;;16.10;99.90;;;;;;5009360;28;20021;-76
2022/06/06 01:25:17;;;;;;;;;;;16.10;99.80;;;;;;5026182;28;19933;-76
2022/06/06 01:27:50;;;;;;;;;;;16.00;99.90;;;;;;4997651;28;19930;-76
2022/06/06 01:30:19;;;;;;;;;;;16.00;99.90;;;;;;5027721;28;19925;-76
2022/06/06 01:32:49;;;;;;;;;;;16.00;99.90;;;;;;5013448;28;20399;-76
2022/06/06 01:35:22;;;;;;;;;;;16.00;99.90;;;;;;5017665;28;20024;-76
2022/06/06 01:37:49;;;;;;;;;;;16.00;99.90;;;;;;5016938;28;19931;-76
2022/06/06 01:40:17;;;;;;;;;;;16.00;99.90;;;;;;5006293;28;19925;-76
2022/06/06 01:42:47;;;;;;;;;;;15.90;99.80;;;;;;5026422;28;19935;-76
2022/06/06 01:45:17;;;;;;;;;;;15.90;99.90;;;;;;5000642;28;19925;-76
2022/06/06 01:47:47;;;;;;;;;;;15.90;99.90;;;;;;5031686;28;20395;-76
2022/06/06 01:50:14;;;;;;;;;;;15.90;99.90;;;;;;4997772;28;19925;-75
2022/06/06 01:52:52;;;;;;;;;;;15.90;99.90;;;;;;5027014;28;19936;-76
2022/06/06 01:55:19;;;;;;;;;;;15.80;99.90;;;;;;5009658;28;19926;-75
2022/06/06 01:57:46;;;;;;;;;;;15.80;99.90;;;;;;5032529;28;19976;-76
2022/06/06 02:00:14;;;;;;;;;;;15.80;99.90;;;;;;5017131;28;20424;-76
2022/06/06 02:02:43;;;;;;;;;;;15.80;99.90;;;;;;5029419;28;19972;-76
2022/06/06 02:05:12;;;;;;;;;;;15.80;99.90;;;;;;5000014;28;20041;-76
2022/06/06 02:07:39;;;;;;;;;;;15.70;99.90;;;;;;5031160;28;20326;-76
2022/06/06 02:10:09;;;;;;;;;;;15.80;99.90;;;;;;5027326;28;19926;-75
2022/06/06 02:12:36;;;;;;;;;;;15.80;99.90;;;;;;5005994;28;19929;-75
2022/06/06 02:15:04;;;;;;;;;;;15.70;99.90;;;;;;5001682;28;20028;-75
2022/06/06 02:17:30;;;;;;;;;;;15.70;99.90;;;;;;4999875;28;19925;-75
2022/06/06 02:19:57;;;;;;;;;;;15.70;99.90;;;;;;5034094;28;20399;-75
2022/06/06 02:22:25;;;;;;;;;;;15.70;99.90;;;;;;5027365;28;19933;-75
2022/06/06 02:24:52;;;;;;;;;;;15.70;99.90;;;;;;5012259;28;19925;-76
2022/06/06 02:27:19;;;;;;;;;;;15.70;99.90;;;;;;5031648;28;20431;-75
2022/06/06 02:29:46;;;;;;;;;;;15.60;99.90;;;;;;5033985;28;19925;-75
2022/06/06 02:32:12;;;;;;;;;;;15.60;99.90;;;;;;5009345;28;20536;-75
2022/06/06 02:34:39;;;;;;;;;;;15.60;99.90;;;;;;5014001;28;19964;-75
2022/06/06 02:37:06;;;;;;;;;;;15.60;99.90;;;;;;4995590;28;19926;-75
2022/06/06 02:39:34;;;;;;;;;;;15.60;99.90;;;;;;4997884;28;19925;-75
2022/06/06 02:42:01;;;;;;;;;;;15.60;99.90;;;;;;5014110;28;19930;-75
2022/06/06 02:44:28;;;;;;;;;;;15.60;99.90;;;;;;5022313;28;19930;-75
2022/06/06 02:46:54;;;;;;;;;;;15.60;99.90;;;;;;5030533;28;19925;-75
2022/06/06 02:49:21;;;;;;;;;;;15.60;99.90;;;;;;5012541;28;19955;-75
2022/06/06 02:51:48;;;;;;;;;;;15.60;99.90;;;;;;5015295;28;19929;-75
2022/06/06 02:54:14;;;;;;;;;;;15.60;99.90;;;;;;5019685;28;20020;-76
2022/06/06 02:56:43;;;;;;;;;;;15.60;99.90;;;;;;5024233;28;19925;-76
2022/06/06 02:59:09;;;;;;;;;;;15.50;99.90;;;;;;4996054;28;19926;-75
2022/06/06 03:01:37;;;;;;;;;;;15.60;99.90;;;;;;5001324;28;19952;-75
2022/06/06 03:04:04;;;;;;;;;;;15.60;99.90;;;;;;5028691;28;19933;-75
2022/06/06 03:06:34;;;;;;;;;;;15.60;99.90;;;;;;5027849;28;19925;-76
2022/06/06 03:09:06;;;;;;;;;;;15.60;99.90;;;;;;5014147;28;19925;-75
2022/06/06 03:11:48;;;;;;;;;;;15.60;99.90;;;;;;5018764;28;19935;-75
2022/06/06 03:14:33;;;;;;;;;;;15.60;99.90;;;;;;5015292;28;19931;-76
2022/06/06 03:22:51;;;;;;;;;;;15.60;99.90;;;;;;4996033;28;19935;-75
2022/06/06 03:25:21;;;;;;;;;;;15.50;99.90;;;;;;5020361;28;19951;-75
2022/06/06 03:27:54;;;;;;;;;;;15.40;99.90;;;;;;5012165;28;20280;-76
2022/06/06 03:30:26;;;;;;;;;;;15.40;99.90;;;;;;5032749;28;19948;-75
2022/06/06 03:32:59;;;;;;;;;;;15.40;99.90;;;;;;5002175;28;19929;-75
2022/06/06 03:35:34;;;;;;;;;;;15.40;99.90;;;;;;5013376;28;19925;-75
2022/06/06 03:38:03;;;;;;;;;;;15.30;99.90;;;;;;5030430;28;19965;-76
2022/06/06 03:40:33;;;;;;;;;;;15.30;99.90;;;;;;5013543;28;20449;-76
2022/06/06 03:43:07;;;;;;;;;;;15.30;99.90;;;;;;5016549;28;19959;-76
2022/06/06 03:45:38;;;;;;;;;;;15.30;99.90;;;;;;5024773;28;19925;-76
2022/06/06 03:48:10;;;;;;;;;;;15.20;99.90;;;;;;5013613;28;19933;-76
2022/06/06 03:50:42;;;;;;;;;;;15.20;99.90;;;;;;5004949;28;20323;-76
2022/06/06 03:53:12;;;;;;;;;;;15.20;99.90;;;;;;5026734;28;19929;-76
2022/06/06 03:55:46;;;;;;;;;;;15.20;99.90;;;;;;5011672;28;20386;-76
2022/06/06 03:58:16;;;;;;;;;;;15.20;99.90;;;;;;5030369;28;19930;-76
2022/06/06 04:00:45;;;;;;;;;;;15.10;99.90;;;;;;5031444;28;19929;-76
2022/06/06 04:03:12;;;;;;;;;;;15.10;99.90;;;;;;5014656;28;19992;-77
2022/06/06 04:05:40;;;;;;;;;;;15.10;99.90;;;;;;5014607;28;19925;-76
2022/06/06 04:08:08;;;;;;;;;;;15.00;99.90;;;;;;4997339;28;20355;-76
2022/06/06 04:10:39;;;;;;;;;;;15.00;99.90;;;;;;5014560;28;19925;-76
2022/06/06 04:13:12;;;;;;;;;;;15.00;99.90;;;;;;5015543;28;19988;-76
2022/06/06 04:15:46;;;;;;;;;;;14.90;99.90;;;;;;5008130;28;19933;-79
2022/06/06 04:18:18;;;;;;;;;;;14.90;99.90;;;;;;5005545;28;20027;-79
2022/06/06 04:21:01;;;;;;;;;;;14.90;99.90;;;;;;5033941;28;19929;-79
2022/06/06 04:23:35;;;;;;;;;;;14.90;99.90;;;;;;5029463;28;20306;-79
2022/06/06 04:26:10;;;;;;;;;;;14.90;99.90;;;;;;5009322;28;20359;-78
2022/06/06 04:28:43;;;;;;;;;;;14.90;99.90;;;;;;5032749;28;19980;-78
2022/06/06 04:31:13;;;;;;;;;;;14.90;99.90;;;;;;5015983;28;19968;-79
2022/06/06 04:33:44;;;;;;;;;;;14.90;99.90;;;;;;5008723;28;19964;-78
2022/06/06 04:36:16;;;;;;;;;;;14.80;99.90;;;;;;5020300;28;19954;-78
2022/06/06 04:38:47;;;;;;;;;;;14.80;99.90;;;;;;4997564;28;19926;-78
2022/06/06 04:41:17;;;;;;;;;;;14.90;99.90;;;;;;5016655;28;19956;-78
2022/06/06 04:43:47;;;;;;;;;;;14.80;99.90;;;;;;5008836;28;19956;-79
2022/06/06 04:46:17;;;;;;;;;;;14.80;99.90;;;;;;5019200;28;20382;-78
2022/06/06 04:48:45;;;;;;;;;;;14.80;99.90;;;;;;5022731;28;20409;-78
2022/06/06 04:51:14;;;;;;;;;;;14.80;99.90;;;;;;4998480;28;19926;-79
2022/06/06 04:53:42;;;;;;;;;;;14.80;99.90;;;;;;5007801;28;19930;-78
2022/06/06 04:56:09;;;;;;;;;;;14.80;99.90;;;;;;5017575;28;20024;-78
2022/06/06 04:58:38;;;;;;;;;;;14.80;99.90;;;;;;5016574;28;19954;-79
2022/06/06 05:01:05;;;;;;;;;;;14.80;99.90;;;;;;5011820;28;20016;-78
2022/06/06 05:03:33;;;;;;;;;;;14.80;99.90;;;;;;5015356;28;19936;-79
2022/06/06 05:06:06;;;;;;;;;;;14.80;99.90;;;;;;5030655;28;19925;-78
2022/06/06 05:08:41;;;;;;;;;;;14.80;99.90;;;;;;5034885;28;20156;-78
2022/06/06 05:11:14;;;;;;;;;;;14.80;99.90;;;;;;5035041;28;19971;-78
2022/06/06 05:13:49;;;;;;;;;;;14.80;99.90;;;;;;5007292;28;20020;-78
2022/06/06 05:16:25;;;;;;;;;;;14.80;99.90;;;;;;5015620;28;19964;-78
2022/06/06 05:19:09;;;;;;;;;;;14.80;99.90;;;;;;5016729;28;20508;-78
2022/06/06 05:21:55;;;;;;;;;;;14.80;99.90;;;;;;5030020;28;19933;-78
2022/06/06 05:24:29;;;;;;;;;;;14.80;99.90;;;;;;5009628;28;19933;-78
2022/06/06 05:27:04;;;;;;;;;;;14.80;99.90;;;;;;4997024;28;19925;-78
2022/06/06 05:29:48;;;;;;;;;;;14.80;99.90;;;;;;5032068;28;19925;-78
2022/06/06 05:32:24;;;;;;;;;;;14.80;99.90;;;;;;5023970;28;19925;-78
2022/06/06 05:34:52;;;;;;;;;;;14.80;99.90;;;;;;5020049;28;19972;-78
2022/06/06 05:37:25;;;;;;;;;;;14.70;99.90;;;;;;5034564;28;20366;-78
2022/06/06 05:39:59;;;;;;;;;;;14.80;99.90;;;;;;5017381;28;19925;-78
2022/06/06 05:42:32;;;;;;;;;;;14.70;99.90;;;;;;5016012;28;19925;-78
2022/06/06 05:45:02;;;;;;;;;;;14.70;99.90;;;;;;5021694;28;20021;-78
2022/06/06 05:47:36;;;;;;;;;;;14.80;99.90;;;;;;5033997;28;19925;-78
2022/06/06 05:50:18;;;;;;;;;;;14.80;99.90;;;;;;5017448;28;20434;-78
2022/06/06 05:52:54;;;;;;;;;;;14.80;99.90;;;;;;5015333;28;19925;-78
2022/06/06 05:55:26;;;;;;;;;;;14.80;99.90;;;;;;5020032;28;19930;-78
2022/06/06 05:58:01;;;;;;;;;;;14.80;99.80;;;;;;4997012;28;20362;-78
2022/06/06 06:00:35;;;;;;;;;;;14.90;99.70;;;;;;5015158;28;19925;-78
2022/06/06 06:03:15;;;;;;;;;;;14.80;99.90;;;;;;5002318;28;19968;-78
2022/06/06 06:05:47;;;;;;;;;;;14.80;99.90;;;;;;5015754;28;20397;-78
2022/06/06 06:08:20;;;;;;;;;;;14.80;99.90;;;;;;5003818;28;20040;-78
2022/06/06 06:10:52;;;;;;;;;;;14.90;99.90;;;;;;5015071;28;19932;-78
2022/06/06 06:13:26;;;;;;;;;;;14.90;99.90;;;;;;5015988;28;20323;-78
2022/06/06 06:15:54;;;;;;;;;;;14.90;99.90;;;;;;5013189;28;20032;-78
2022/06/06 06:18:22;;;;;;;;;;;14.90;99.90;;;;;;5016648;28;19932;-78
2022/06/06 06:20:52;;;;;;;;;;;15.00;99.90;;;;;;5034713;28;19925;-78
2022/06/06 06:23:22;;;;;;;;;;;15.00;99.80;;;;;;5034327;28;19933;-78
2022/06/06 06:25:50;;;;;;;;;;;15.00;99.80;;;;;;5034478;28;20044;-77
2022/06/06 06:28:17;;;;;;;;;;;15.00;99.80;;;;;;5016304;28;20405;-78
2022/06/06 06:30:49;;;;;;;;;;;15.00;99.80;;;;;;5015055;28;19980;-78
2022/06/06 06:33:31;;;;;;;;;;;15.00;99.70;;;;;;5016570;28;20053;-78
2022/06/06 06:36:04;;;;;;;;;;;15.10;99.60;;;;;;5034405;28;19929;-78
2022/06/06 06:38:49;;;;;;;;;;;15.10;99.70;;;;;;5033175;28;19926;-77
2022/06/06 06:41:23;;;;;;;;;;;15.10;99.80;;;;;;5015837;28;20381;-77
2022/06/06 06:43:55;;;;;;;;;;;15.10;99.90;;;;;;5026183;28;20008;-77
2022/06/06 06:46:26;;;;;;;;;;;15.20;99.80;;;;;;5013968;28;19929;-77
2022/06/06 06:48:55;;;;;;;;;;;15.20;99.70;;;;;;5016257;28;19953;-77
2022/06/06 06:51:26;;;;;;;;;;;15.20;99.60;;;;;;5006034;28;20425;-78
2022/06/06 06:54:00;;;;;;;;;;;15.30;99.60;;;;;;4998440;28;19952;-78
2022/06/06 06:56:36;;;;;;;;;;;15.40;99.50;;;;;;5015253;28;19936;-77
2022/06/06 06:59:10;;;;;;;;;;;15.40;99.40;;;;;;5015841;28;20496;-77
2022/06/06 07:01:39;;;;;;;;;;;15.40;99.40;;;;;;5032182;28;20012;-77
2022/06/06 07:09:57;;;;;;;;;;;15.60;99.40;;;;;;5028095;28;20384;-78
2022/06/06 07:12:31;;;;;;;;;;;15.60;99.20;;;;;;5027950;28;20315;-77
2022/06/06 07:15:03;;;;;;;;;;;15.70;99.20;;;;;;5003503;28;19972;-78
2022/06/06 07:17:31;;;;;;;;;;;15.70;98.90;;;;;;5023270;28;19972;-79
2022/06/06 07:20:00;;;;;;;;;;;15.80;99.30;;;;;;5001585;28;19936;-79
2022/06/06 07:22:29;;;;;;;;;;;15.80;98.80;;;;;;5015905;28;20020;-78
2022/06/06 07:25:16;;;;;;;;;;;15.80;98.60;;;;;;5004780;28;19926;-79
2022/06/06 07:27:44;;;;;;;;;;;15.90;98.30;;;;;;5011807;28;19980;-78
2022/06/06 07:30:11;;;;;;;;;;;15.90;97.80;;;;;;4995536;28;19964;-78
2022/06/06 07:32:41;;;;;;;;;;;15.90;98.20;;;;;;5015233;28;19926;-78
2022/06/06 07:35:12;;;;;;;;;;;15.80;98.40;;;;;;4996572;28;19926;-79
2022/06/06 07:37:51;;;;;;;;;;;15.80;98.50;;;;;;5029600;28;20020;-80
2022/06/06 07:40:25;;;;;;;;;;;15.80;98.40;;;;;;5011373;28;19925;-80
2022/06/06 07:43:10;;;;;;;;;;;15.80;98.40;;;;;;5008041;28;19925;-79
2022/06/06 07:45:40;;;;;;;;;;;15.80;98.40;;;;;;5015779;28;20019;-81
2022/06/06 07:48:16;;;;;;;;;;;15.80;98.50;;;;;;5004843;28;19965;-76
2022/06/06 07:50:46;;;;;;;;;;;15.80;98.50;;;;;;5013459;28;20024;-78
2022/06/06 07:53:17;;;;;;;;;;;15.80;98.60;;;;;;5007812;28;19926;-78
2022/06/06 07:55:47;;;;;;;;;;;15.90;98.70;;;;;;5029750;28;19926;-79
2022/06/06 07:58:17;;;;;;;;;;;16.00;98.40;;;;;;5037967;28;20184;-80
2022/06/06 08:00:47;;;;;;;;;;;16.00;98.50;;;;;;5031434;28;20312;-77
2022/06/06 08:03:16;;;;;;;;;;;16.00;98.20;;;;;;5012107;28;20012;-78
2022/06/06 08:06:01;;;;;;;;;;;16.00;98.20;;;;;;5027949;28;19983;-78
2022/06/06 08:08:35;;;;;;;;;;;16.00;98.40;;;;;;5028303;28;19976;-78
2022/06/06 08:11:04;;;;;;;;;;;16.00;98.50;;;;;;5027904;28;19932;-78
2022/06/06 08:13:38;;;;;;;;;;;16.00;98.50;;;;;;5018434;28;20302;-78
2022/06/06 08:16:11;;;;;;;;;;;15.90;98.40;;;;;;5023446;28;20073;-81
2022/06/06 08:18:52;;;;;;;;;;;16.00;98.30;;;;;;5001226;28;19980;-81
2022/06/06 08:21:22;;;;;;;;;;;15.90;98.30;;;;;;4988810;28;20379;-79
2022/06/06 08:23:50;;;;;;;;;;;15.90;97.70;;;;;;5012197;28;20016;-80
2022/06/06 08:26:16;;;;;;;;;;;15.90;97.90;;;;;;5010999;28;19932;-80
2022/06/06 08:28:46;;;;;;;;;;;15.90;98.00;;;;;;5009965;28;19929;-77
2022/06/06 08:31:12;;;;;;;;;;;15.90;98.10;;;;;;5033612;28;20522;-79
2022/06/06 08:33:39;;;;;;;;;;;16.00;97.90;;;;;;5021384;28;19925;-78
2022/06/06 08:36:25;;;;;;;;;;;16.00;97.70;;;;;;5005043;28;19925;-78
2022/06/06 08:38:56;;;;;;;;;;;16.00;97.50;;;;;;5020986;28;19929;-78
2022/06/06 08:41:38;;;;;;;;;;;16.00;97.00;;;;;;5039468;28;20399;-77
2022/06/06 08:44:14;;;;;;;;;;;16.00;97.20;;;;;;5039072;28;19925;-77
2022/06/06 08:46:51;;;;;;;;;;;15.90;97.20;;;;;;5021321;28;19925;-79
2022/06/06 08:52:17;;;;;;;;;;;15.90;97.30;;;;;;5038912;28;20023;-77
2022/06/06 08:54:55;;;;;;;;;;;15.80;97.30;;;;;;5039228;28;20017;-78
2022/06/06 08:57:35;;;;;;;;;;;15.80;97.70;;;;;;5021051;28;19926;-77
2022/06/06 09:00:11;;;;;;;;;;;15.90;97.90;;;;;;5001965;28;19956;-79
2022/06/06 09:02:57;;;;;;;;;;;15.90;97.90;;;;;;5026791;28;20457;-77
2022/06/06 09:05:41;;;;;;;;;;;16.00;97.40;;;;;;5031519;28;19933;-76
2022/06/06 09:08:32;;;;;;;;;;;16.10;97.10;;;;;;5015527;28;19926;-78
2022/06/06 09:11:14;;;;;;;;;;;16.20;96.80;;;;;;4997897;28;19936;-76
2022/06/06 09:13:54;;;;;;;;;;;16.20;96.10;;;;;;4998555;28;20392;-80
2022/06/06 09:16:54;;;;;;;;;;;16.30;96.30;;;;;;4999258;28;20491;-78
2022/06/06 09:19:44;;;;;;;;;;;16.30;96.80;;;;;;4992041;28;19926;-78
2022/06/06 09:22:22;;;;;;;;;;;16.50;95.90;;;;;;5026890;28;20551;-79
2022/06/06 09:25:12;;;;;;;;;;;16.50;96.20;;;;;;5012262;28;19925;-79
2022/06/06 09:27:58;;;;;;;;;;;16.60;95.80;;;;;;4996089;28;20305;-79
2022/06/06 09:30:31;;;;;;;;;;;16.60;95.50;;;;;;4997183;28;19973;-81
2022/06/06 09:33:17;;;;;;;;;;;16.60;95.60;;;;;;4995496;28;19936;-85
2022/06/06 09:35:53;;;;;;;;;;;16.50;95.90;;;;;;4997239;28;20020;-90
2022/06/06 09:38:35;;;;;;;;;;;16.40;96.20;;;;;;4998066;28;20384;-84
2022/06/06 09:41:12;;;;;;;;;;;16.40;96.50;;;;;;4996939;28;19984;-87
2022/06/06 09:43:50;;;;;;;;;;;16.30;96.80;;;;;;5011932;28;19930;-87
2022/06/06 09:46:47;;;;;;;;;;;16.30;96.70;;;;;;4998297;28;20319;-87
2022/06/06 09:49:32;;;;;;;;;;;16.30;97.30;;;;;;5014447;28;19929;-86
2022/06/06 09:52:12;;;;;;;;;;;16.30;95.90;;;;;;5008443;28;20012;-88
2022/06/06 10:01:01;;;;;;;;;;;16.10;96.50;;;;;;4996257;28;19925;-84
2022/06/06 10:03:47;;;;;;;;;;;16.10;97.20;;;;;;4997794;28;20371;-83
2022/06/06 10:06:31;;;;;;;;;;;16.10;97.00;;;;;;5008778;28;19929;-84
2022/06/06 10:09:23;;;;;;;;;;;16.10;97.50;;;;;;4997886;28;19976;-85
2022/06/06 10:12:03;;;;;;;;;;;16.20;97.60;;;;;;5021070;28;20032;-85
2022/06/06 10:14:48;;;;;;;;;;;16.20;96.50;;;;;;5005940;28;20385;-83
2022/06/06 10:17:23;;;;;;;;;;;16.30;95.90;;;;;;5014455;28;20434;-84
2022/06/06 10:19:57;;;;;;;;;;;16.10;95.90;;;;;;4999374;28;19932;-82
2022/06/06 10:22:34;;;;;;;;;;;16.00;96.20;;;;;;5033142;28;19963;-86
2022/06/06 10:25:25;;;;;;;;;;;15.90;96.40;;;;;;5000392;28;19975;-83
2022/06/06 10:28:02;;;;;;;;;;;15.90;96.80;;;;;;5012582;28;19936;-83
2022/06/06 10:30:37;;;;;;;;;;;15.90;97.60;;;;;;4999946;28;20434;-84
2022/06/06 10:33:18;;;;;;;;;;;16.00;97.50;;;;;;5010391;28;20438;-84
2022/06/06 10:36:03;;;;;;;;;;;16.20;97.30;;;;;;5012204;28;20351;-84
2022/06/06 10:38:42;;;;;;;;;;;16.30;97.20;;;;;;5007554;28;19952;-85
2022/06/06 10:41:15;;;;;;;;;;;16.40;97.10;;;;;;5007452;28;19961;-84
2022/06/06 10:43:49;;;;;;;;;;;16.50;96.80;;;;;;4993019;28;19925;-84
2022/06/06 10:46:17;;;;;;;;;;;16.50;96.60;;;;;;4999842;28;19984;-83
2022/06/06 10:49:02;;;;;;;;;;;16.70;96.00;;;;;;5031520;28;19936;-85
2022/06/06 10:51:59;;;;;;;;;;;16.80;95.30;;;;;;5006884;28;20450;-84
2022/06/06 10:54:56;;;;;;;;;;;16.90;94.80;;;;;;5011596;28;19931;-83
2022/06/06 10:57:36;;;;;;;;;;;16.90;94.90;;;;;;4994231;28;20005;-79
2022/06/06 11:00:10;;;;;;;;;;;16.90;94.60;;;;;;5002951;28;19976;-82
2022/06/06 11:02:51;;;;;;;;;;;16.70;94.80;;;;;;4995833;28;19925;-84
2022/06/06 11:05:25;;;;;;;;;;;16.70;95.30;;;;;;5018486;28;19926;-77
2022/06/06 11:08:06;;;;;;;;;;;16.70;95.60;;;;;;5012855;28;20020;-77
2022/06/06 11:10:47;;;;;;;;;;;16.80;95.40;;;;;;5020393;28;20025;-78
2022/06/06 11:13:18;;;;;;;;;;;16.80;95.10;;;;;;4999399;28;19929;-81
2022/06/06 11:15:55;;;;;;;;;;;16.80;95.00;;;;;;5000049;28;20450;-81
2022/06/06 11:18:34;;;;;;;;;;;16.70;95.00;;;;;;4996807;28;19926;-85
2022/06/06 11:21:30;;;;;;;;;;;16.70;95.60;;;;;;5001815;28;19946;-82
2022/06/06 11:24:02;;;;;;;;;;;16.70;95.20;;;;;;5002109;28;19926;-82
2022/06/06 11:26:43;;;;;;;;;;;16.80;94.30;;;;;;4995837;28;19972;-82
2022/06/06 11:29:22;;;;;;;;;;;16.80;94.30;;;;;;5013227;28;20441;-82
2022/06/06 11:31:53;;;;;;;;;;;16.70;94.30;;;;;;4998136;28;19929;-84
2022/06/06 11:34:51;;;;;;;;;;;16.60;94.50;;;;;;5005131;28;19961;-84
2022/06/06 11:37:37;;;;;;;;;;;16.60;94.40;;;;;;5009168;28;19933;-83
2022/06/06 11:40:16;;;;;;;;;;;16.70;94.60;;;;;;5010685;28;19972;-84
2022/06/06 11:43:00;;;;;;;;;;;16.70;94.90;;;;;;4999892;28;20404;-82
2022/06/06 11:45:47;;;;;;;;;;;16.80;94.40;;;;;;4995497;28;19925;-82
2022/06/06 11:48:32;;;;;;;;;;;16.90;94.50;;;;;;5030955;28;19925;-85
2022/06/06 11:51:15;;;;;;;;;;;16.90;94.90;;;;;;5004081;28;19926;-85
2022/06/06 11:54:00;;;;;;;;;;;17.00;95.50;;;;;;5012381;28;20096;-85
2022/06/06 11:56:41;;;;;;;;;;;17.20;94.60;;;;;;5007725;28;19959;-85
2022/06/06 11:59:18;;;;;;;;;;;17.50;93.00;;;;;;5014590;28;19925;-86
2022/06/06 12:02:03;;;;;;;;;;;17.60;93.80;;;;;;5014685;28;20439;-84
2022/06/06 12:04:44;;;;;;;;;;;17.60;93.60;;;;;;5014746;28;19930;-85
2022/06/06 12:07:25;;;;;;;;;;;17.70;92.50;;;;;;5014502;28;19936;-85
2022/06/06 12:09:58;;;;;;;;;;;17.80;91.90;;;;;;5014434;28;19965;-85
2022/06/06 12:12:40;;;;;;;;;;;17.80;91.70;;;;;;5015965;28;19925;-85
2022/06/06 12:15:26;;;;;;;;;;;17.80;91.00;;;;;;5008536;28;19937;-79
2022/06/06 12:18:09;;;;;;;;;;;17.90;89.30;;;;;;5006602;28;19926;-81
2022/06/06 12:20:51;;;;;;;;;;;17.80;90.20;;;;;;5020694;28;19929;-83
2022/06/06 12:23:23;;;;;;;;;;;17.80;90.30;;;;;;5002362;28;19932;-90
2022/06/06 12:26:06;;;;;;;;;;;17.80;89.40;;;;;;5022825;28;19936;-86
2022/06/06 12:28:55;;;;;;;;;;;17.80;89.90;;;;;;5004594;28;20363;-85
2022/06/06 12:31:33;;;;;;;;;;;17.90;84.40;;;;;;5013605;28;20023;-89
2022/06/06 12:34:04;;;;;;;;;;;17.90;85.40;;;;;;5013799;28;19925;-81
2022/06/06 12:36:35;;;;;;;;;;;17.90;85.50;;;;;;5020082;28;20027;-87
2022/06/06 12:39:11;;;;;;;;;;;17.80;85.80;;;;;;5024492;28;20100;-91
2022/06/06 12:41:43;;;;;;;;;;;17.80;85.70;;;;;;5014772;28;19932;-90
2022/06/06 12:44:16;;;;;;;;;;;17.70;85.00;;;;;;5035201;28;19925;-87
2022/06/06 12:46:52;;;;;;;;;;;17.70;86.70;;;;;;5029192;28;19956;-85
2022/06/06 12:49:34;;;;;;;;;;;17.60;87.80;;;;;;5027223;28;19925;-88
2022/06/06 12:52:07;;;;;;;;;;;17.50;88.80;;;;;;4991867;28;19952;-90
2022/06/06 12:57:31;;;;;;;;;;;17.60;89.60;;;;;;5012456;28;19936;-88
2022/06/06 13:00:02;;;;;;;;;;;17.60;90.30;;;;;;5011865;28;20375;-88
2022/06/06 13:02:38;;;;;;;;;;;17.60;91.00;;;;;;5003170;28;20443;-88
2022/06/06 13:05:10;;;;;;;;;;;17.60;91.30;;;;;;5023670;28;19976;-87
2022/06/06 13:07:56;;;;;;;;;;;17.70;91.20;;;;;;5031178;28;20491;-90
2022/06/06 13:10:32;;;;;;;;;;;17.70;90.10;;;;;;5012554;28;20010;-91
2022/06/06 13:13:07;;;;;;;;;;;17.70;91.00;;;;;;5022174;28;19924;-90
2022/06/06 13:15:38;;;;;;;;;;;17.70;90.70;;;;;;5020461;28;19925;-83
2022/06/06 13:18:11;;;;;;;;;;;17.70;90.50;;;;;;5013161;28;19964;-88
2022/06/06 13:20:41;;;;;;;;;;;17.70;90.60;;;;;;5030815;28;19964;-83
2022/06/06 13:23:25;;;;;;;;;;;17.70;90.30;;;;;;5025341;28;19929;-86
2022/06/06 13:26:04;;;;;;;;;;;17.70;90.60;;;;;;5014286;28;19991;-82
2022/06/06 13:28:32;;;;;;;;;;;17.70;90.60;;;;;;5033651;28;20322;-84
2022/06/06 13:31:04;;;;;;;;;;;17.70;90.40;;;;;;5008988;28;19925;-86
2022/06/06 13:33:43;;;;;;;;;;;17.70;90.00;;;;;;5037312;28;20023;-84
2022/06/06 13:36:18;;;;;;;;;;;17.60;90.30;;;;;;5037130;28;19928;-86
2022/06/06 13:38:53;;;;;;;;;;;17.60;90.70;;;;;;5037074;28;20347;-84
2022/06/06 13:41:25;;;;;;;;;;;17.40;90.90;;;;;;5012323;28;20044;-85
2022/06/06 13:43:56;;;;;;;;;;;17.40;91.40;;;;;;5013810;28;19925;-88
2022/06/06 13:46:41;;;;;;;;;;;17.40;92.20;;;;;;5007430;28;20017;-86
2022/06/06 13:49:27;;;;;;;;;;;17.30;92.50;;;;;;5023683;28;19951;-82
2022/06/06 13:52:03;;;;;;;;;;;17.20;93.30;;;;;;5008694;28;19925;-81
2022/06/06 13:54:31;;;;;;;;;;;17.00;93.70;;;;;;4998665;28;19932;-79
2022/06/06 13:57:13;;;;;;;;;;;17.00;94.10;;;;;;5022894;28;20040;-82
2022/06/06 13:59:55;;;;;;;;;;;16.80;94.50;;;;;;5018604;28;20417;-81
2022/06/06 14:02:27;;;;;;;;;;;16.80;94.80;;;;;;5021435;28;19928;-80
2022/06/06 14:05:00;;;;;;;;;;;16.70;95.00;;;;;;5035082;28;19975;-82
2022/06/06 14:07:34;;;;;;;;;;;16.50;95.40;;;;;;5028385;28;19972;-81
2022/06/06 14:10:04;;;;;;;;;;;16.40;95.70;;;;;;5041316;28;19983;-81
2022/06/06 14:12:37;;;;;;;;;;;16.30;96.00;;;;;;5018395;28;19928;-82
2022/06/06 14:15:06;;;;;;;;;;;16.30;96.30;;;;;;5035173;28;19924;-80
2022/06/06 14:17:36;;;;;;;;;;;16.20;96.40;;;;;;5023389;28;20426;-84
2022/06/06 14:20:17;;;;;;;;;;;16.20;96.70;;;;;;5018093;28;20767;-83
2022/06/06 14:22:44;;;;;;;;;;;16.20;96.60;;;;;;5028890;28;20550;-82
2022/06/06 14:25:12;;;;;;;;;;;16.20;96.80;;;;;;5017412;28;20379;-84
2022/06/06 14:27:40;;;;;;;;;;;16.20;96.80;;;;;;5035938;28;20521;-82
2022/06/06 14:30:09;;;;;;;;;;;16.10;97.10;;;;;;5002701;28;19965;-82
2022/06/06 14:32:48;;;;;;;;;;;16.10;97.30;;;;;;5015896;28;20351;-81
2022/06/06 14:35:27;;;;;;;;;;;16.10;97.30;;;;;;5002526;28;20016;-81
2022/06/06 14:38:09;;;;;;;;;;;16.10;97.40;;;;;;5035434;28;19932;-79
2022/06/06 14:40:38;;;;;;;;;;;16.00;97.40;;;;;;5012195;28;19936;-77
2022/06/06 14:43:08;;;;;;;;;;;16.00;97.50;;;;;;5018320;28;20024;-80
2022/06/06 14:45:36;;;;;;;;;;;15.90;97.60;;;;;;5028706;28;20328;-80
2022/06/06 14:48:04;;;;;;;;;;;15.90;97.60;;;;;;5022708;28;20027;-78
2022/06/06 14:50:51;;;;;;;;;;;15.90;97.70;;;;;;5027944;28;19929;-78
2022/06/06 14:53:19;;;;;;;;;;;15.80;97.90;;;;;;5004860;28;21759;-80
2022/06/06 14:55:47;;;;;;;;;;;15.80;98.00;;;;;;5026947;28;19925;-77
2022/06/06 14:58:17;;;;;;;;;;;15.70;98.10;;;;;;5036302;28;19956;-79
2022/06/06 15:00:50;;;;;;;;;;;15.70;98.20;;;;;;5044593;28;19929;-77
2022/06/06 15:03:17;;;;;;;;;;;15.70;98.20;;;;;;5005984;28;19933;-79
2022/06/06 15:05:44;;;;;;;;;;;15.80;98.20;;;;;;5013417;28;20032;-79
2022/06/06 15:08:16;;;;;;;;;;;15.80;98.20;;;;;;5028593;28;20367;-77
2022/06/06 15:10:45;;;;;;;;;;;15.80;98.10;;;;;;5029432;28;19929;-77
2022/06/06 15:13:13;;;;;;;;;;;15.70;98.00;;;;;;5032474;28;19934;-77
2022/06/06 15:15:42;;;;;;;;;;;15.60;98.30;;;;;;5035176;28;19936;-76
2022/06/06 15:18:15;;;;;;;;;;;15.50;98.40;;;;;;5032558;28;19925;-80
2022/06/06 15:20:48;;;;;;;;;;;15.50;98.40;;;;;;5023519;28;19929;-82